createdAt,value
2023-05-04T00:02:08.047Z,51128.16
2023-05-04T00:04:35.130Z,51130.13
2023-05-04T00:07:02.311Z,51124.19
2023-05-04T00:09:29.450Z,51118.22
2023-05-04T00:11:56.692Z,51110.25
2023-05-04T00:14:23.754Z,51122.19
2023-05-04T00:16:50.885Z,51100.31
2023-05-04T00:19:19.674Z,51102.31
2023-05-04T00:21:46.898Z,51110.25
2023-05-04T00:24:14.022Z,51126.16
2023-05-04T00:26:41.262Z,51122.19
2023-05-04T00:29:08.359Z,51134.13
2023-05-04T00:31:35.459Z,51112.25
2023-05-04T00:34:02.564Z,51124.19
2023-05-04T00:36:30.548Z,51126.16
2023-05-04T00:38:58.023Z,51096.34
2023-05-04T00:41:25.128Z,51112.25
2023-05-04T00:43:52.512Z,51094.34
2023-05-04T00:46:20.076Z,51094.34
2023-05-04T00:48:49.654Z,51112.25
2023-05-04T00:51:20.514Z,51126.16
2023-05-04T00:53:48.941Z,51126.16
2023-05-04T00:56:16.984Z,51106.28
2023-05-04T00:58:44.199Z,51106.28
2023-05-04T01:01:11.701Z,51118.22
2023-05-04T01:03:39.034Z,51110.25
2023-05-04T01:06:33.563Z,51098.34
2023-05-04T01:09:17.186Z,51098.34
2023-05-04T01:12:01.576Z,51120.19
2023-05-04T01:14:30.486Z,51126.16
2023-05-04T01:16:59.843Z,51108.28
2023-05-04T01:19:30.181Z,51102.31
2023-05-04T01:21:57.415Z,51102.31
2023-05-04T01:24:26.740Z,51076.47
2023-05-04T01:27:02.972Z,51096.34
2023-05-04T01:29:46.831Z,51112.25
2023-05-04T01:32:15.885Z,51106.28
2023-05-04T01:34:42.937Z,51102.31
2023-05-04T01:37:10.435Z,51100.31
2023-05-04T01:39:37.512Z,51092.38
2023-05-04T01:42:05.058Z,51106.28
2023-05-04T01:44:32.134Z,51110.25
2023-05-04T01:46:59.361Z,51120.19
2023-05-04T01:49:26.550Z,51122.19
2023-05-04T01:51:53.670Z,51104.28
2023-05-04T01:54:20.849Z,51122.19
2023-05-04T01:56:47.986Z,51124.19
2023-05-04T01:59:15.924Z,51094.34
2023-05-04T02:01:43.005Z,51094.34
2023-05-04T02:04:10.353Z,51112.25
2023-05-04T02:06:38.986Z,51074.47
2023-05-04T02:09:06.137Z,51104.28
2023-05-04T02:11:33.724Z,51108.28
2023-05-04T02:14:00.980Z,51094.34
2023-05-04T02:16:28.051Z,51080.44
2023-05-04T02:18:55.172Z,51110.25
2023-05-04T02:21:23.122Z,51090.38
2023-05-04T02:23:50.283Z,51094.34
2023-05-04T02:26:17.432Z,51088.41
2023-05-04T02:28:44.553Z,51092.38
2023-05-04T02:31:11.657Z,51094.34
2023-05-04T02:33:38.782Z,51110.25
2023-05-04T02:36:06.306Z,51104.28
2023-05-04T02:38:33.641Z,51090.38
2023-05-04T02:41:00.655Z,51102.31
2023-05-04T02:43:27.776Z,51078.47
2023-05-04T02:45:54.947Z,51088.41
2023-05-04T02:48:22.101Z,51102.31
2023-05-04T02:50:49.151Z,51104.28
2023-05-04T02:53:16.316Z,51096.34
2023-05-04T02:55:43.517Z,51094.34
2023-05-04T02:58:10.589Z,51078.47
2023-05-04T03:00:37.713Z,51070.50
2023-05-04T03:03:04.823Z,51128.16
2023-05-04T03:05:31.896Z,51110.25
2023-05-04T03:07:58.976Z,51126.16
2023-05-04T03:10:26.275Z,51094.34
2023-05-04T03:12:53.369Z,51070.50
2023-05-04T03:15:20.559Z,51108.28
2023-05-04T03:17:47.888Z,51106.28
2023-05-04T03:20:15.208Z,51088.41
2023-05-04T03:22:42.714Z,51078.47
2023-05-04T03:25:10.665Z,51082.44
2023-05-04T03:27:37.737Z,51074.47
2023-05-04T03:30:06.696Z,51102.31
2023-05-04T03:32:35.127Z,51090.38
2023-05-04T03:35:03.967Z,51082.44
2023-05-04T03:37:31.409Z,51094.34
2023-05-04T03:39:58.460Z,51092.38
2023-05-04T03:42:25.546Z,51094.34
2023-05-04T03:44:52.797Z,51086.41
2023-05-04T03:47:20.028Z,51082.44
2023-05-04T03:49:47.819Z,51110.25
2023-05-04T03:52:14.927Z,51116.22
2023-05-04T03:54:42.009Z,51092.38
2023-05-04T03:57:09.198Z,51082.44
2023-05-04T03:59:37.139Z,51102.31
2023-05-04T04:02:06.540Z,51110.25
2023-05-04T04:04:33.838Z,51092.38
2023-05-04T04:07:01.217Z,51074.47
2023-05-04T04:09:30.624Z,51094.34
2023-05-04T04:11:57.734Z,51086.41
2023-05-04T04:14:24.858Z,51122.19
2023-05-04T04:16:51.985Z,51096.34
2023-05-04T04:19:19.032Z,51098.34
2023-05-04T04:21:46.178Z,51082.44
2023-05-04T04:24:13.394Z,51100.31
2023-05-04T04:26:40.464Z,51106.28
2023-05-04T04:29:07.729Z,51100.31
2023-05-04T04:31:34.851Z,51110.25
2023-05-04T04:34:01.973Z,51118.22
2023-05-04T04:36:29.574Z,51094.34
2023-05-04T04:38:56.638Z,51086.41
2023-05-04T04:41:25.012Z,51084.41
2023-05-04T04:43:55.212Z,51084.41
2023-05-04T04:46:22.429Z,51092.38
2023-05-04T04:48:50.246Z,51106.28
2023-05-04T04:51:17.320Z,51112.25
2023-05-04T04:53:44.603Z,51094.34
2023-05-04T04:56:11.710Z,51090.38
2023-05-04T04:58:38.953Z,51114.25
2023-05-04T05:01:08.347Z,51106.28
2023-05-04T05:03:35.476Z,51118.22
2023-05-04T05:06:02.873Z,51108.28
2023-05-04T05:08:30.455Z,51104.28
2023-05-04T05:10:57.495Z,51120.19
2023-05-04T05:13:24.634Z,51124.19
2023-05-04T05:15:51.810Z,51116.22
2023-05-04T05:18:19.867Z,51136.09
2023-05-04T05:20:46.993Z,51128.16
2023-05-04T05:23:14.066Z,51126.16
2023-05-04T05:25:41.701Z,51132.13
2023-05-04T05:28:08.937Z,51120.19
2023-05-04T05:30:36.273Z,51128.16
2023-05-04T05:33:03.904Z,51094.34
2023-05-04T05:35:31.325Z,51130.13
2023-05-04T05:37:58.514Z,51146.03
2023-05-04T05:40:25.693Z,51136.09
2023-05-04T05:42:52.755Z,51122.19
2023-05-04T05:45:19.907Z,51124.19
2023-05-04T05:47:47.054Z,51154.00
2023-05-04T05:50:14.360Z,51118.22
2023-05-04T05:52:41.440Z,51110.25
2023-05-04T05:55:09.318Z,51140.09
2023-05-04T05:57:36.559Z,51142.06
2023-05-04T06:00:06.381Z,51157.97
2023-05-04T06:02:39.314Z,51142.06
2023-05-04T06:05:07.096Z,51144.06
2023-05-04T06:07:34.555Z,51124.19
2023-05-04T06:10:02.176Z,51154.00
2023-05-04T06:12:29.392Z,51157.97
2023-05-04T06:14:56.640Z,51179.84
2023-05-04T06:17:23.712Z,51173.88
2023-05-04T06:19:51.400Z,51146.03
2023-05-04T06:22:18.526Z,51157.97
2023-05-04T06:24:46.649Z,51175.88
2023-05-04T06:27:13.786Z,51157.97
2023-05-04T06:29:41.479Z,51173.88
2023-05-04T06:32:10.377Z,51211.66
2023-05-04T06:34:37.616Z,51187.78
2023-05-04T06:37:04.640Z,51197.72
2023-05-04T06:39:31.840Z,51179.84
2023-05-04T06:41:59.609Z,51177.84
2023-05-04T06:44:28.645Z,51193.75
2023-05-04T06:46:55.826Z,51193.75
2023-05-04T06:49:22.923Z,51207.66
2023-05-04T06:51:50.145Z,51207.66
2023-05-04T06:54:17.217Z,51193.75
2023-05-04T06:56:44.333Z,51177.84
2023-05-04T06:59:11.407Z,51221.59
2023-05-04T07:01:38.938Z,51213.63
2023-05-04T07:04:06.748Z,51183.81
2023-05-04T07:06:33.902Z,51221.59
2023-05-04T07:09:01.239Z,51217.59
2023-05-04T07:11:28.793Z,51185.81
2023-05-04T07:13:55.997Z,51227.56
2023-05-04T07:16:23.119Z,51217.59
2023-05-04T07:18:50.202Z,51209.66
2023-05-04T07:21:27.798Z,51209.66
2023-05-04T07:23:56.568Z,51229.53
2023-05-04T07:26:23.680Z,51225.56
2023-05-04T07:28:50.813Z,51245.44
2023-05-04T07:31:17.951Z,51249.41
2023-05-04T07:33:45.780Z,51253.41
2023-05-04T07:36:12.963Z,51251.41
2023-05-04T07:38:40.056Z,51265.31
2023-05-04T07:41:07.368Z,51237.50
2023-05-04T07:43:34.432Z,51247.44
2023-05-04T07:46:01.704Z,51271.28
2023-05-04T07:48:28.871Z,51237.50
2023-05-04T07:50:56.075Z,51279.25
2023-05-04T07:53:25.548Z,51269.31
2023-05-04T07:55:54.399Z,51261.34
2023-05-04T07:58:21.608Z,51269.31
2023-05-04T08:00:48.859Z,51255.38
2023-05-04T08:03:16.689Z,51263.34
2023-05-04T08:05:43.896Z,51289.19
2023-05-04T08:08:10.992Z,51285.19
2023-05-04T08:10:38.782Z,51265.31
2023-05-04T08:13:06.121Z,51259.34
2023-05-04T08:15:33.299Z,51283.22
2023-05-04T08:18:00.437Z,51307.06
2023-05-04T08:20:27.666Z,51303.09
2023-05-04T08:22:54.755Z,51305.09
2023-05-04T08:25:22.783Z,51287.19
2023-05-04T08:27:50.436Z,51285.19
2023-05-04T08:30:17.746Z,51319.00
2023-05-04T08:32:45.257Z,51297.13
2023-05-04T08:35:13.337Z,51301.09
2023-05-04T08:37:40.526Z,51332.91
2023-05-04T08:40:08.690Z,51322.97
2023-05-04T08:42:36.399Z,51321.00
2023-05-04T08:45:04.215Z,51319.00
2023-05-04T08:47:31.526Z,51303.09
2023-05-04T08:49:58.918Z,51321.00
2023-05-04T08:52:27.037Z,51315.03
2023-05-04T08:54:57.016Z,51338.88
2023-05-04T08:57:25.449Z,51326.94
2023-05-04T08:59:54.929Z,51315.03
2023-05-04T09:02:23.837Z,51324.97
2023-05-04T09:04:52.718Z,51340.88
2023-05-04T09:07:21.972Z,51332.91
2023-05-04T09:09:51.772Z,51332.91
2023-05-04T09:12:19.406Z,51307.06
2023-05-04T09:14:46.908Z,51313.03
2023-05-04T09:17:17.780Z,51321.00
2023-05-04T09:19:45.072Z,51352.78
2023-05-04T09:22:19.423Z,51324.97
2023-05-04T09:24:46.904Z,51344.84
2023-05-04T09:27:18.644Z,51328.94
2023-05-04T09:29:54.312Z,51336.91
2023-05-04T09:32:21.597Z,51354.78
2023-05-04T09:34:53.816Z,51364.72
2023-05-04T09:37:22.255Z,51360.75
2023-05-04T09:39:59.437Z,51350.81
2023-05-04T09:42:27.063Z,51368.69
2023-05-04T09:45:08.273Z,51356.78
2023-05-04T09:47:40.769Z,51354.78
2023-05-04T09:50:22.381Z,51378.66
2023-05-04T09:52:50.449Z,51372.69
2023-05-04T09:55:20.485Z,51374.66
2023-05-04T09:57:50.682Z,51372.69
2023-05-04T10:00:19.078Z,51370.69
2023-05-04T10:02:48.108Z,51354.78
2023-05-04T10:05:18.179Z,51376.66
2023-05-04T10:07:46.477Z,51366.72
2023-05-04T10:10:15.213Z,51388.59
2023-05-04T10:12:44.660Z,51394.53
2023-05-04T10:15:12.771Z,51376.66
2023-05-04T10:18:30.884Z,51392.56
2023-05-04T10:21:26.191Z,51380.63
2023-05-04T10:24:02.274Z,51384.59
2023-05-04T10:26:55.223Z,51428.34
2023-05-04T10:29:24.997Z,51442.25
2023-05-04T10:31:53.480Z,51388.59
2023-05-04T10:34:33.372Z,51406.47
2023-05-04T10:37:02.936Z,51420.41
2023-05-04T10:39:35.286Z,51418.41
2023-05-04T10:42:04.613Z,51420.41
2023-05-04T10:44:55.097Z,51416.41
2023-05-04T10:47:34.112Z,51412.44
2023-05-04T10:50:06.485Z,51420.41
2023-05-04T10:52:49.131Z,51420.41
2023-05-04T10:55:18.073Z,51430.34
2023-05-04T10:57:53.856Z,51434.31
2023-05-04T11:00:21.682Z,51418.41
2023-05-04T11:02:49.783Z,51448.22
2023-05-04T11:05:20.114Z,51434.31
2023-05-04T11:07:53.103Z,51442.25
2023-05-04T11:10:29.509Z,51472.09
2023-05-04T11:13:05.712Z,51484.00
2023-05-04T11:15:47.243Z,51497.94
2023-05-04T11:18:15.425Z,51472.09
2023-05-04T11:20:42.936Z,51480.03
2023-05-04T11:23:10.478Z,51505.88
2023-05-04T11:25:38.480Z,51491.97
2023-05-04T11:28:05.658Z,51513.84
2023-05-04T11:30:34.770Z,51525.75
2023-05-04T11:33:05.276Z,51517.81
2023-05-04T11:35:32.561Z,51521.78
2023-05-04T11:37:59.723Z,51549.63
2023-05-04T11:40:27.569Z,51549.63
2023-05-04T11:42:57.864Z,51577.47
2023-05-04T11:45:33.453Z,51637.09
2023-05-04T11:48:01.270Z,51702.72
2023-05-04T11:50:29.353Z,51748.44
2023-05-04T11:53:12.215Z,51843.88
2023-05-04T11:55:39.691Z,51929.38
2023-05-04T11:58:09.989Z,52028.81
2023-05-04T12:00:49.177Z,52124.25
2023-05-04T12:03:52.324Z,52056.66
2023-05-04T12:06:32.567Z,52058.63
2023-05-04T12:09:05.819Z,52128.22
2023-05-04T12:11:34.237Z,52265.44
2023-05-04T12:14:10.392Z,52267.44
2023-05-04T12:16:38.786Z,52325.09
2023-05-04T12:19:12.764Z,52376.81
2023-05-04T12:22:09.992Z,52257.50
2023-05-04T12:24:37.173Z,52213.75
2023-05-04T12:27:05.022Z,52277.38
2023-05-04T12:29:35.026Z,52333.06
2023-05-04T12:32:02.213Z,52360.91
2023-05-04T12:34:29.458Z,52442.44
2023-05-04T12:36:56.671Z,52494.16
2023-05-04T12:39:24.132Z,52617.44
2023-05-04T12:41:51.439Z,52667.16
2023-05-04T12:44:19.058Z,52700.97
2023-05-04T12:46:46.338Z,52708.94
2023-05-04T12:49:14.725Z,52818.31
2023-05-04T12:51:42.108Z,52796.44
2023-05-04T12:54:09.598Z,52722.84
2023-05-04T12:56:37.390Z,52661.19
2023-05-04T12:59:04.639Z,52679.09
2023-05-04T13:01:31.924Z,52645.28
2023-05-04T13:03:59.235Z,52740.75
2023-05-04T13:06:26.538Z,52895.88
2023-05-04T13:08:53.940Z,52943.63
2023-05-04T13:11:21.212Z,53005.28
2023-05-04T13:13:48.630Z,52907.81
2023-05-04T13:16:17.114Z,52792.47
2023-05-04T13:18:44.603Z,52790.47
2023-05-04T13:21:11.920Z,52706.94
2023-05-04T13:23:39.250Z,52651.25
2023-05-04T13:26:06.852Z,52704.97
2023-05-04T13:28:34.047Z,52567.72
2023-05-04T13:31:01.722Z,52655.22
2023-05-04T13:33:30.837Z,52557.78
2023-05-04T13:35:59.332Z,52591.59
2023-05-04T13:38:27.317Z,52569.72
2023-05-04T13:40:56.281Z,52601.53
2023-05-04T13:43:24.021Z,52633.34
2023-05-04T13:45:52.024Z,52722.84
2023-05-04T13:48:19.334Z,52645.28
2023-05-04T13:50:46.961Z,52824.28
2023-05-04T13:53:14.179Z,52911.81
2023-05-04T13:55:41.471Z,52899.88
2023-05-04T13:58:08.680Z,52774.56
2023-05-04T14:00:35.951Z,52571.69
2023-05-04T14:03:04.889Z,52673.13
2023-05-04T14:05:32.281Z,52866.06
2023-05-04T14:07:59.677Z,52913.78
2023-05-04T14:10:27.418Z,52860.09
2023-05-04T14:12:54.709Z,53017.22
2023-05-04T14:15:23.176Z,52979.44
2023-05-04T14:17:50.851Z,52824.28
2023-05-04T14:20:18.392Z,52778.53
2023-05-04T14:22:45.752Z,52778.53
2023-05-04T14:25:13.420Z,52553.81
2023-05-04T14:27:43.016Z,52494.16
2023-05-04T14:30:11.148Z,52394.72
2023-05-04T14:32:38.391Z,52539.88
2023-05-04T14:35:08.989Z,52430.50
2023-05-04T14:37:38.244Z,52384.75
2023-05-04T14:40:10.874Z,52414.59
2023-05-04T14:42:38.871Z,52539.88
2023-05-04T14:45:08.100Z,52615.47
2023-05-04T14:47:35.429Z,52575.69
2023-05-04T14:50:02.659Z,52490.16
2023-05-04T14:52:29.680Z,52382.78
2023-05-04T14:54:56.881Z,52319.13
2023-05-04T14:57:23.989Z,52386.75
2023-05-04T14:59:51.314Z,52366.88
2023-05-04T15:02:19.296Z,52394.72
2023-05-04T15:04:47.061Z,52287.31
2023-05-04T15:07:20.624Z,52221.69
2023-05-04T15:09:47.824Z,52281.34
2023-05-04T15:12:14.960Z,52343.00
2023-05-04T15:14:41.970Z,52394.72
2023-05-04T15:17:09.321Z,52343.00
2023-05-04T15:19:39.920Z,52380.78
2023-05-04T15:22:07.808Z,52474.25
2023-05-04T15:24:35.120Z,52510.06
2023-05-04T15:27:02.404Z,52494.16
2023-05-04T15:29:29.692Z,52498.13
2023-05-04T15:31:57.204Z,52498.13
2023-05-04T15:34:24.361Z,52424.53
2023-05-04T15:36:52.131Z,52410.63
2023-05-04T15:39:19.247Z,52341.00
2023-05-04T15:41:46.385Z,52287.31
2023-05-04T15:44:13.420Z,52237.59
2023-05-04T15:46:41.092Z,52193.84
2023-05-04T15:49:08.380Z,52030.78
2023-05-04T15:51:35.467Z,51973.13
2023-05-04T15:54:03.747Z,51933.38
2023-05-04T15:56:30.852Z,51901.56
2023-05-04T15:58:57.924Z,51865.75
2023-05-04T16:01:25.438Z,51909.50
2023-05-04T16:03:55.627Z,51955.25
2023-05-04T16:06:23.690Z,51977.09
2023-05-04T16:08:51.125Z,51933.38
2023-05-04T16:11:18.308Z,51939.31
2023-05-04T16:13:46.449Z,51923.41
2023-05-04T16:16:13.530Z,51915.47
2023-05-04T16:18:40.754Z,51905.53
2023-05-04T16:21:08.929Z,51845.88
2023-05-04T16:23:36.449Z,51808.09
2023-05-04T16:26:03.802Z,51782.25
2023-05-04T16:28:30.948Z,51786.22
2023-05-04T16:30:58.378Z,51762.38
2023-05-04T16:33:26.734Z,51742.47
2023-05-04T16:35:54.137Z,51710.66
2023-05-04T16:38:21.193Z,51688.78
2023-05-04T16:40:48.562Z,51706.69
2023-05-04T16:43:16.050Z,51718.63
2023-05-04T16:45:43.188Z,51670.91
2023-05-04T16:48:10.568Z,51666.94
2023-05-04T16:50:38.424Z,51706.69
2023-05-04T16:53:05.626Z,51645.06
2023-05-04T16:55:32.674Z,51662.94
2023-05-04T16:57:59.780Z,51647.03
2023-05-04T17:00:26.835Z,51603.31
2023-05-04T17:02:53.988Z,51607.28
2023-05-04T17:05:21.338Z,51571.50
2023-05-04T17:07:48.644Z,51569.50
2023-05-04T17:10:17.784Z,51545.66
2023-05-04T17:12:45.136Z,51571.50
2023-05-04T17:15:12.867Z,51539.69
2023-05-04T17:17:41.322Z,51521.78
2023-05-04T17:20:14.506Z,51525.75
2023-05-04T17:22:43.240Z,51541.66
2023-05-04T17:25:12.089Z,51472.09
2023-05-04T17:27:39.624Z,51511.84
2023-05-04T17:30:07.803Z,51489.97
2023-05-04T17:32:37.266Z,51486.00
2023-05-04T17:35:15.929Z,51476.06
2023-05-04T17:37:47.800Z,51488.00
2023-05-04T17:40:14.907Z,51474.06
2023-05-04T17:42:42.407Z,51448.22
2023-05-04T17:45:10.022Z,51442.25
2023-05-04T17:47:37.365Z,51468.09
2023-05-04T17:50:05.458Z,51454.19
2023-05-04T17:52:32.960Z,51440.28
2023-05-04T17:55:00.137Z,51444.25
2023-05-04T17:57:27.368Z,51452.19
2023-05-04T17:59:57.163Z,51440.28
2023-05-04T18:02:24.431Z,51436.28
2023-05-04T18:04:51.754Z,51440.28
2023-05-04T18:07:19.210Z,51410.44
2023-05-04T18:09:47.440Z,51394.53
2023-05-04T18:12:14.729Z,51412.44
2023-05-04T18:14:41.843Z,51376.66
2023-05-04T18:17:09.020Z,51384.59
2023-05-04T18:19:37.040Z,51382.63
2023-05-04T18:22:04.206Z,51388.59
2023-05-04T18:24:33.317Z,51370.69
2023-05-04T18:27:02.186Z,51384.59
2023-05-04T18:29:29.410Z,51396.53
2023-05-04T18:31:56.620Z,51360.75
2023-05-04T18:34:23.749Z,51352.78
2023-05-04T18:36:51.040Z,51394.53
2023-05-04T18:39:19.029Z,51374.66
2023-05-04T18:41:46.345Z,51336.91
2023-05-04T18:44:17.305Z,51348.81
2023-05-04T18:46:44.587Z,51356.78
2023-05-04T18:49:12.214Z,51354.78
2023-05-04T18:51:41.719Z,51344.84
2023-05-04T18:54:09.182Z,51319.00
2023-05-04T18:56:36.531Z,51338.88
2023-05-04T18:59:06.117Z,51315.03
2023-05-04T19:01:33.553Z,51328.94
2023-05-04T19:04:00.724Z,51346.84
2023-05-04T19:06:28.047Z,51326.94
2023-05-04T19:08:55.502Z,51289.19
2023-05-04T19:11:22.690Z,51322.97
2023-05-04T19:13:50.080Z,51338.88
2023-05-04T19:16:17.546Z,51319.00
2023-05-04T19:18:45.694Z,51315.03
2023-05-04T19:21:13.012Z,51293.16
2023-05-04T19:23:40.134Z,51289.19
2023-05-04T19:26:07.236Z,51301.09
2023-05-04T19:28:34.356Z,51313.03
2023-05-04T19:31:01.604Z,51271.28
2023-05-04T19:33:36.641Z,51313.03
2023-05-04T19:36:07.871Z,51281.22
2023-05-04T19:38:35.422Z,51299.13
2023-05-04T19:41:02.474Z,51285.19
2023-05-04T19:43:29.699Z,51287.19
2023-05-04T19:45:57.432Z,51283.22
2023-05-04T19:48:24.812Z,51261.34
2023-05-04T19:50:52.118Z,51269.31
2023-05-04T19:53:19.259Z,51271.28
2023-05-04T19:55:46.644Z,51297.13
2023-05-04T19:58:13.824Z,51263.34
2023-05-04T20:00:40.946Z,51233.50
2023-05-04T20:03:08.137Z,51281.22
2023-05-04T20:05:35.474Z,51273.28
2023-05-04T20:08:04.996Z,51265.31
2023-05-04T20:10:32.661Z,51275.25
2023-05-04T20:12:59.837Z,51269.31
2023-05-04T20:15:27.257Z,51269.31
2023-05-04T20:17:54.351Z,51245.44
2023-05-04T20:20:22.017Z,51281.22
2023-05-04T20:22:52.371Z,51273.28
2023-05-04T20:25:20.153Z,51271.28
2023-05-04T20:27:48.832Z,51259.34
2023-05-04T20:30:16.373Z,51265.31
2023-05-04T20:32:44.226Z,51253.41
2023-05-04T20:35:11.468Z,51253.41
2023-05-04T20:37:38.730Z,51271.28
2023-05-04T20:40:08.304Z,51227.56
2023-05-04T20:42:36.050Z,51245.44
2023-05-04T20:45:03.349Z,51269.31
2023-05-04T20:47:30.448Z,51239.47
2023-05-04T20:49:57.548Z,51245.44
2023-05-04T20:52:24.870Z,51209.66
2023-05-04T20:54:52.122Z,51237.50
2023-05-04T20:57:19.226Z,51243.47
2023-05-04T20:59:46.397Z,51247.44
2023-05-04T21:02:13.550Z,51235.50
2023-05-04T21:04:41.824Z,51221.59
2023-05-04T21:07:09.192Z,51233.50
2023-05-04T21:09:36.446Z,51241.47
2023-05-04T21:12:03.914Z,51221.59
2023-05-04T21:14:31.104Z,51219.59
2023-05-04T21:16:58.304Z,51235.50
2023-05-04T21:19:25.452Z,51217.59
2023-05-04T21:21:53.082Z,51197.72
2023-05-04T21:24:20.818Z,51241.47
2023-05-04T21:26:48.623Z,51239.47
2023-05-04T21:29:15.870Z,51225.56
2023-05-04T21:31:43.056Z,51223.56
2023-05-04T21:34:10.662Z,51223.56
2023-05-04T21:36:39.050Z,51213.63
2023-05-04T21:39:06.339Z,51227.56
2023-05-04T21:41:33.550Z,51207.66
2023-05-04T21:44:00.770Z,51223.56
2023-05-04T21:46:28.136Z,51213.63
2023-05-04T21:48:55.290Z,51227.56
2023-05-04T21:51:22.377Z,51241.47
2023-05-04T21:53:49.474Z,51221.59
2023-05-04T21:56:16.714Z,51213.63
2023-05-04T21:58:43.819Z,51241.47
2023-05-04T22:01:17.261Z,51205.69
2023-05-04T22:03:44.995Z,51221.59
2023-05-04T22:06:12.312Z,51217.59
2023-05-04T22:08:39.729Z,51195.75
2023-05-04T22:11:06.783Z,51219.59
2023-05-04T22:13:33.866Z,51213.63
2023-05-04T22:16:01.281Z,51199.72
2023-05-04T22:18:28.403Z,51201.72
2023-05-04T22:20:55.512Z,51209.66
2023-05-04T22:23:22.563Z,51231.53
2023-05-04T22:25:49.710Z,51199.72
2023-05-04T22:28:17.096Z,51221.59
2023-05-04T22:30:44.315Z,51221.59
2023-05-04T22:33:11.430Z,51205.69
2023-05-04T22:35:38.558Z,51217.59
2023-05-04T22:38:05.655Z,51193.75
2023-05-04T22:40:32.934Z,51189.78
2023-05-04T22:42:59.962Z,51213.63
2023-05-04T22:45:27.119Z,51209.66
2023-05-04T22:47:54.193Z,51187.78
2023-05-04T22:50:21.415Z,51201.72
2023-05-04T22:52:48.639Z,51211.66
2023-05-04T22:55:15.766Z,51189.78
2023-05-04T22:57:43.202Z,51191.78
2023-05-04T23:00:11.532Z,51169.91
2023-05-04T23:02:38.952Z,51169.91
2023-05-04T23:05:07.131Z,51199.72
2023-05-04T23:07:34.440Z,51187.78
2023-05-04T23:10:01.927Z,51185.81
2023-05-04T23:12:29.065Z,51201.72
2023-05-04T23:14:56.519Z,51193.75
2023-05-04T23:17:23.756Z,51201.72
2023-05-04T23:19:51.138Z,51195.75
2023-05-04T23:22:18.219Z,51185.81
2023-05-04T23:24:45.498Z,51185.81
2023-05-04T23:27:12.623Z,51199.72
2023-05-04T23:29:39.768Z,51187.78
2023-05-04T23:32:07.026Z,51185.81
2023-05-04T23:34:34.282Z,51187.78
2023-05-04T23:37:01.584Z,51175.88
2023-05-04T23:39:28.745Z,51187.78
2023-05-04T23:41:55.860Z,51173.88
2023-05-04T23:44:22.953Z,51181.81
2023-05-04T23:46:50.098Z,51175.88
2023-05-04T23:49:17.263Z,51167.91
2023-05-04T23:51:44.488Z,51169.91
2023-05-04T23:54:11.557Z,51187.78
2023-05-04T23:56:38.645Z,51165.91
2023-05-04T23:59:05.867Z,51167.91
